Time;durP1;ratioP1;P1;durP2;ratioP2;P2;SDS_P1;SDS_P2;PMS_P1;PMS_P2;Temp;Humidity;BMP_temperature;BMP_pressure;BME280_temperature;BME280_humidity;BME280_pressure;Samples;Min_cycle;Max_cycle;Signal;HPM_P1;HPM_P2
2024/01/23 00:01:12;;;;;;;22.80;5.60;;;6.00;99.90;;;;;;5092833;28;20047;-77
2024/01/23 00:03:38;;;;;;;28.00;4.03;;;6.00;99.90;;;;;;5091428;28;20044;-77
2024/01/23 00:06:04;;;;;;;22.27;4.40;;;6.00;99.90;;;;;;5092371;28;20048;-77
2024/01/23 00:08:29;;;;;;;25.33;4.80;;;6.00;99.90;;;;;;5092548;28;20121;-77
2024/01/23 00:10:56;;;;;;;31.17;5.67;;;6.00;99.90;;;;;;5092920;28;20486;-77
2024/01/23 00:13:22;;;;;;;23.73;5.07;;;6.00;99.90;;;;;;5091071;28;20398;-76
2024/01/23 00:15:48;;;;;;;26.90;4.28;;;6.00;99.90;;;;;;5092864;28;20763;-77
2024/01/23 00:18:14;;;;;;;27.52;4.18;;;6.00;99.90;;;;;;5095452;28;20543;-77
2024/01/23 00:20:40;;;;;;;25.63;4.97;;;6.00;99.90;;;;;;5096025;28;20048;-77
2024/01/23 00:23:06;;;;;;;27.10;4.53;;;5.90;99.90;;;;;;5096466;28;20055;-77
2024/01/23 00:25:32;;;;;;;23.83;4.80;;;5.90;99.90;;;;;;5095914;28;20661;-77
2024/01/23 00:27:57;;;;;;;32.47;5.53;;;5.90;99.90;;;;;;5096331;28;20500;-77
2024/01/23 00:30:23;;;;;;;26.07;4.67;;;6.00;99.90;;;;;;5095905;28;20059;-76
2024/01/23 00:32:49;;;;;;;27.70;4.43;;;6.00;99.90;;;;;;5096269;28;20063;-77
2024/01/23 00:35:15;;;;;;;28.17;6.13;;;5.90;99.90;;;;;;5096095;28;20040;-77
2024/01/23 00:37:41;;;;;;;39.77;6.57;;;5.90;99.90;;;;;;5095767;28;20040;-77
2024/01/23 00:40:09;;;;;;;21.30;4.87;;;5.90;99.90;;;;;;5095826;28;20048;-77
2024/01/23 00:42:35;;;;;;;24.98;4.68;;;5.90;99.90;;;;;;5095621;28;20086;-77
2024/01/23 00:45:01;;;;;;;27.67;4.53;;;5.90;99.90;;;;;;5095974;28;20075;-77
2024/01/23 00:47:27;;;;;;;24.60;4.80;;;6.00;99.90;;;;;;5095503;28;20055;-77
2024/01/23 00:49:52;;;;;;;21.80;4.87;;;5.90;99.90;;;;;;5095693;28;20089;-77
2024/01/23 00:52:18;;;;;;;27.37;5.10;;;6.00;99.90;;;;;;5095567;28;20371;-77
2024/01/23 00:54:44;;;;;;;24.80;4.17;;;6.00;99.90;;;;;;5095439;28;20047;-77
2024/01/23 00:57:09;;;;;;;28.17;4.50;;;5.90;99.90;;;;;;5095466;28;20552;-77
2024/01/23 00:59:35;;;;;;;27.53;5.33;;;6.00;99.90;;;;;;5095359;28;20044;-77
2024/01/23 01:02:02;;;;;;;28.27;4.73;;;6.00;99.90;;;;;;5095611;28;20477;-77
2024/01/23 01:04:27;;;;;;;24.17;5.40;;;5.90;99.90;;;;;;5095045;28;20044;-77
2024/01/23 01:06:53;;;;;;;28.40;4.90;;;5.90;99.90;;;;;;5095239;28;20390;-77
2024/01/23 01:09:19;;;;;;;32.57;5.60;;;5.90;99.90;;;;;;5095503;28;20079;-77
2024/01/23 01:11:45;;;;;;;24.43;4.77;;;5.90;99.90;;;;;;5095063;28;20489;-77
2024/01/23 01:14:10;;;;;;;29.33;5.17;;;5.90;99.90;;;;;;5095208;28;20080;-77
2024/01/23 01:16:36;;;;;;;24.93;3.97;;;5.90;99.90;;;;;;5095034;28;20509;-78
2024/01/23 01:19:03;;;;;;;24.63;4.83;;;5.90;99.90;;;;;;5095181;28;20386;-77
2024/01/23 01:21:29;;;;;;;33.37;5.00;;;5.90;99.90;;;;;;5093943;28;20039;-77
2024/01/23 01:23:55;;;;;;;30.47;4.90;;;5.90;99.90;;;;;;5093769;28;20305;-77
2024/01/23 01:26:20;;;;;;;27.73;4.97;;;5.90;99.90;;;;;;5094931;28;20044;-77
2024/01/23 01:28:46;;;;;;;25.73;5.23;;;5.90;99.90;;;;;;5092980;28;20504;-77
2024/01/23 01:31:12;;;;;;;32.67;5.50;;;5.90;99.90;;;;;;5094825;28;20051;-77
2024/01/23 01:33:37;;;;;;;29.43;6.30;;;5.90;99.90;;;;;;5094631;28;20048;-77
2024/01/23 01:36:04;;;;;;;24.23;5.60;;;5.90;99.90;;;;;;5093851;28;20048;-77
2024/01/23 01:38:29;;;;;;;21.73;4.82;;;5.90;99.90;;;;;;5093343;28;20081;-76
2024/01/23 01:40:57;;;;;;;29.93;6.47;;;5.80;99.90;;;;;;5094724;28;20043;-77
2024/01/23 01:43:25;;;;;;;29.45;4.93;;;5.80;99.90;;;;;;5094424;28;20490;-77
2024/01/23 01:46:19;;;;;;;22.65;4.82;;;5.80;99.90;;;;;;5094291;28;20043;-77
2024/01/23 01:48:46;;;;;;;34.88;5.95;;;5.80;99.90;;;;;;5094412;28;20052;-77
2024/01/23 01:51:14;;;;;;;30.70;7.18;;;5.70;99.90;;;;;;5094178;28;20490;-77
2024/01/23 01:53:41;;;;;;;25.27;4.75;;;5.80;99.90;;;;;;5094301;28;20051;-77
2024/01/23 01:56:08;;;;;;;38.15;7.38;;;5.70;99.90;;;;;;5094426;28;20416;-77
2024/01/23 01:58:34;;;;;;;29.45;6.43;;;5.70;99.90;;;;;;5094197;28;20044;-76
2024/01/23 02:01:00;;;;;;;31.40;5.10;;;5.70;99.90;;;;;;5094311;28;20082;-77
2024/01/23 02:03:29;;;;;;;30.10;5.78;;;5.70;99.90;;;;;;5094472;28;20047;-77
2024/01/23 02:06:00;;;;;;;31.40;5.70;;;5.70;99.90;;;;;;5092612;28;20044;-77
2024/01/23 02:08:27;;;;;;;27.85;4.53;;;5.70;99.90;;;;;;5093246;28;20048;-77
2024/01/23 02:10:54;;;;;;;31.58;5.90;;;5.70;99.90;;;;;;5093940;28;20040;-77
2024/01/23 02:13:20;;;;;;;30.92;5.55;;;5.70;99.90;;;;;;5092854;28;20048;-77
2024/01/23 02:15:46;;;;;;;30.52;5.30;;;5.70;99.90;;;;;;5093756;28;20052;-77
2024/01/23 02:18:12;;;;;;;32.80;5.83;;;5.70;99.90;;;;;;5093643;28;20089;-77
2024/01/23 02:20:38;;;;;;;32.43;6.73;;;5.70;99.90;;;;;;5093785;28;20078;-77
2024/01/23 02:23:03;;;;;;;35.50;5.97;;;5.70;99.90;;;;;;5093956;28;20477;-77
2024/01/23 02:25:29;;;;;;;35.47;6.33;;;5.70;99.90;;;;;;5093866;28;20131;-77
2024/01/23 02:27:57;;;;;;;34.90;6.93;;;5.70;99.90;;;;;;5093729;28;20105;-77
2024/01/23 02:30:23;;;;;;;31.63;5.88;;;5.70;99.90;;;;;;5093999;28;20126;-77
2024/01/23 02:32:48;;;;;;;34.37;5.70;;;5.70;99.90;;;;;;5093294;28;20131;-77
2024/01/23 02:35:14;;;;;;;31.47;5.87;;;5.70;99.90;;;;;;5093738;28;20051;-77
2024/01/23 02:37:40;;;;;;;28.30;5.50;;;5.80;99.90;;;;;;5092581;28;20067;-77
2024/01/23 02:40:06;;;;;;;28.30;6.15;;;5.80;99.90;;;;;;5093656;28;20104;-77
2024/01/23 02:42:32;;;;;;;31.15;6.85;;;5.80;99.90;;;;;;5093730;28;20051;-77
2024/01/23 02:44:58;;;;;;;28.87;5.53;;;5.80;99.90;;;;;;5093324;28;20047;-77
2024/01/23 02:47:24;;;;;;;28.00;5.90;;;5.80;99.90;;;;;;5093507;28;20040;-78
2024/01/23 02:49:50;;;;;;;32.50;5.40;;;5.80;99.90;;;;;;5093356;28;20097;-77
2024/01/23 02:52:16;;;;;;;32.80;5.47;;;5.80;99.90;;;;;;5093466;28;20048;-77
2024/01/23 02:54:43;;;;;;;33.87;6.70;;;5.90;99.90;;;;;;5092981;28;20100;-77
2024/01/23 02:57:09;;;;;;;27.48;5.20;;;5.90;99.90;;;;;;5093431;28;20116;-77
2024/01/23 02:59:35;;;;;;;33.43;5.37;;;5.90;99.90;;;;;;5093354;28;20043;-77
2024/01/23 03:02:00;;;;;;;26.23;5.07;;;5.90;99.90;;;;;;5093191;28;20080;-77
2024/01/23 03:04:26;;;;;;;33.53;5.40;;;6.00;99.90;;;;;;5093291;28;20398;-77
2024/01/23 03:06:52;;;;;;;37.83;5.67;;;6.00;99.90;;;;;;5092996;28;20156;-77
2024/01/23 03:09:19;;;;;;;34.47;6.35;;;6.00;99.90;;;;;;5092024;28;20048;-77
2024/01/23 03:11:45;;;;;;;30.17;5.17;;;6.00;99.90;;;;;;5093022;28;20044;-77
2024/01/23 03:14:11;;;;;;;44.47;7.50;;;6.00;99.90;;;;;;5093226;28;20040;-77
2024/01/23 03:16:37;;;;;;;31.75;6.15;;;6.10;99.90;;;;;;5093018;28;20501;-77
2024/01/23 03:19:03;;;;;;;32.90;5.90;;;6.10;99.90;;;;;;5093298;28;20044;-78
2024/01/23 03:21:29;;;;;;;31.13;6.10;;;6.10;99.90;;;;;;5091977;28;20102;-77
2024/01/23 03:23:54;;;;;;;29.80;5.37;;;6.10;99.90;;;;;;5093012;28;20278;-77
2024/01/23 03:26:20;;;;;;;37.37;6.60;;;6.10;99.90;;;;;;5093010;28;20036;-77
2024/01/23 03:28:46;;;;;;;31.13;5.83;;;6.10;99.90;;;;;;5092922;28;20646;-77
2024/01/23 03:31:11;;;;;;;33.50;6.80;;;6.20;99.90;;;;;;5093013;28;20044;-77
2024/01/23 03:33:37;;;;;;;28.30;5.90;;;6.20;99.90;;;;;;5091969;28;20081;-77
2024/01/23 03:36:03;;;;;;;30.27;5.77;;;6.20;99.90;;;;;;5092849;28;20435;-77
2024/01/23 03:38:29;;;;;;;37.80;6.83;;;6.30;99.90;;;;;;5093027;28;20156;-77
2024/01/23 03:40:54;;;;;;;39.13;7.13;;;6.30;99.90;;;;;;5092866;28;20044;-77
2024/01/23 03:43:20;;;;;;;31.57;5.60;;;6.30;99.90;;;;;;5092966;28;20051;-77
2024/01/23 03:45:46;;;;;;;35.47;7.20;;;6.30;99.90;;;;;;5092710;28;20044;-77
2024/01/23 03:48:11;;;;;;;32.47;6.80;;;6.30;99.90;;;;;;5092949;28;20079;-77
2024/01/23 03:50:37;;;;;;;30.13;5.93;;;6.40;99.90;;;;;;5093018;28;20048;-77
2024/01/23 03:53:03;;;;;;;35.67;6.10;;;6.40;99.90;;;;;;5095787;28;20482;-77
2024/01/23 03:55:28;;;;;;;34.13;5.63;;;6.40;99.90;;;;;;5096452;28;20122;-77
2024/01/23 03:57:54;;;;;;;30.77;6.20;;;6.40;99.90;;;;;;5096535;28;20097;-77
2024/01/23 04:00:20;;;;;;;25.43;5.03;;;6.40;99.90;;;;;;5095433;28;20457;-78
2024/01/23 04:02:46;;;;;;;40.27;7.73;;;6.50;99.90;;;;;;5095174;28;20089;-77
2024/01/23 04:05:11;;;;;;;34.17;6.33;;;6.50;99.90;;;;;;5096303;28;20129;-77
2024/01/23 04:07:37;;;;;;;43.40;7.07;;;6.50;99.90;;;;;;5096586;28;20375;-77
2024/01/23 04:10:04;;;;;;;35.03;7.10;;;6.50;99.90;;;;;;5095131;28;20048;-77
2024/01/23 04:12:30;;;;;;;38.08;7.18;;;6.50;99.90;;;;;;5095255;28;20082;-77
2024/01/23 04:14:55;;;;;;;40.80;8.00;;;6.50;99.90;;;;;;5096225;28;20079;-77
2024/01/23 04:17:21;;;;;;;37.63;6.60;;;6.50;99.90;;;;;;5096321;28;20362;-78
2024/01/23 04:19:47;;;;;;;35.20;5.30;;;6.50;99.90;;;;;;5096062;28;20052;-77
2024/01/23 04:22:13;;;;;;;32.23;5.93;;;6.50;99.90;;;;;;5095339;28;20071;-77
2024/01/23 04:24:40;;;;;;;34.57;6.43;;;6.50;99.90;;;;;;5096268;28;20105;-77
2024/01/23 04:27:06;;;;;;;35.87;7.27;;;6.50;99.90;;;;;;5094772;28;20136;-77
2024/01/23 04:29:32;;;;;;;33.90;7.87;;;6.50;99.90;;;;;;5096152;28;20620;-78
2024/01/23 04:31:58;;;;;;;36.77;6.70;;;6.50;99.90;;;;;;5095829;28;20286;-77
2024/01/23 04:34:23;;;;;;;36.80;6.03;;;6.50;99.90;;;;;;5095736;28;20047;-77
2024/01/23 04:36:49;;;;;;;43.73;7.47;;;6.50;99.90;;;;;;5095821;28;20126;-77
2024/01/23 04:39:16;;;;;;;35.37;6.27;;;6.50;99.90;;;;;;5095917;28;20374;-77
2024/01/23 04:41:42;;;;;;;33.50;6.95;;;6.50;99.90;;;;;;5095884;28;20040;-77
2024/01/23 04:44:08;;;;;;;44.13;7.47;;;6.50;99.90;;;;;;5095658;28;20044;-78
2024/01/23 04:46:33;;;;;;;35.77;7.20;;;6.50;99.90;;;;;;5095669;28;20040;-78
2024/01/23 04:48:59;;;;;;;45.80;7.70;;;6.50;99.90;;;;;;5095644;28;20048;-77
2024/01/23 04:51:25;;;;;;;44.67;8.53;;;6.60;99.90;;;;;;5094552;28;20036;-77
2024/01/23 04:53:53;;;;;;;39.53;6.57;;;6.50;99.90;;;;;;5095438;28;20080;-77
2024/01/23 04:56:19;;;;;;;38.57;8.03;;;6.50;99.90;;;;;;5095737;28;20077;-77
2024/01/23 04:58:45;;;;;;;35.90;7.37;;;6.60;99.90;;;;;;5094355;28;20632;-78
2024/01/23 05:01:11;;;;;;;38.33;7.37;;;6.60;99.90;;;;;;5095306;28;20075;-78
2024/01/23 05:03:37;;;;;;;32.57;7.13;;;6.60;99.90;;;;;;5094226;28;20059;-78
2024/01/23 05:06:04;;;;;;;39.73;6.83;;;6.60;99.90;;;;;;5095216;28;20513;-77
2024/01/23 05:08:30;;;;;;;40.97;6.50;;;6.60;99.90;;;;;;5095382;28;20078;-78
2024/01/23 05:10:56;;;;;;;36.13;6.10;;;6.60;99.90;;;;;;5095132;28;20688;-77
2024/01/23 05:13:22;;;;;;;41.07;7.30;;;6.60;99.90;;;;;;5095466;28;20169;-78
2024/01/23 05:15:48;;;;;;;34.40;7.63;;;6.50;99.90;;;;;;5094900;28;20052;-78
2024/01/23 05:18:13;;;;;;;40.03;7.00;;;6.50;99.90;;;;;;5094895;28;20047;-77
2024/01/23 05:20:39;;;;;;;36.70;7.20;;;6.50;99.90;;;;;;5095071;28;20055;-78
2024/01/23 05:23:05;;;;;;;43.80;7.77;;;6.50;99.90;;;;;;5093705;28;20046;-77
2024/01/23 05:25:31;;;;;;;39.33;8.07;;;6.40;99.90;;;;;;5094953;28;20083;-77
2024/01/23 05:27:57;;;;;;;42.47;7.57;;;6.40;99.90;;;;;;5094846;28;20639;-77
2024/01/23 05:30:23;;;;;;;48.07;7.53;;;6.40;99.90;;;;;;5094931;28;20279;-78
2024/01/23 05:32:50;;;;;;;35.10;7.53;;;6.30;99.90;;;;;;5094831;28;20078;-78
2024/01/23 05:35:16;;;;;;;41.83;7.20;;;6.20;99.90;;;;;;5094680;28;20365;-78
2024/01/23 05:37:43;;;;;;;44.43;8.90;;;6.20;99.90;;;;;;5094935;28;20071;-78
2024/01/23 05:40:12;;;;;;;39.43;7.03;;;6.20;99.90;;;;;;5094486;28;20278;-78
2024/01/23 05:42:38;;;;;;;36.83;6.50;;;6.10;99.90;;;;;;5094645;28;20365;-78
2024/01/23 05:45:05;;;;;;;42.65;8.32;;;6.10;99.90;;;;;;5094448;28;20366;-78
2024/01/23 05:47:31;;;;;;;46.88;8.07;;;6.10;99.90;;;;;;5094506;28;20386;-78
2024/01/23 05:49:56;;;;;;;40.43;7.23;;;6.10;99.90;;;;;;5094030;28;20052;-77
2024/01/23 05:52:22;;;;;;;39.33;7.43;;;6.00;99.90;;;;;;5094109;28;20048;-78
2024/01/23 05:54:49;;;;;;;38.97;7.20;;;6.00;99.90;;;;;;5094503;28;20044;-78
2024/01/23 05:57:15;;;;;;;39.70;7.60;;;6.00;99.90;;;;;;5094185;28;20122;-78
2024/01/23 05:59:41;;;;;;;40.63;6.93;;;6.00;99.90;;;;;;5094355;28;20373;-78
2024/01/23 06:02:07;;;;;;;46.67;8.70;;;5.90;99.90;;;;;;5094078;28;20047;-77
2024/01/23 06:04:33;;;;;;;32.05;7.20;;;5.90;99.90;;;;;;5094085;28;20066;-77
2024/01/23 06:06:59;;;;;;;50.63;7.77;;;5.90;99.90;;;;;;5094140;28;20036;-77
2024/01/23 06:09:25;;;;;;;43.38;7.50;;;5.90;99.90;;;;;;5094200;28;20048;-77
2024/01/23 06:11:52;;;;;;;45.60;8.47;;;5.90;99.90;;;;;;5094265;28;20048;-78
2024/01/23 06:14:18;;;;;;;41.85;7.38;;;5.90;99.90;;;;;;5093299;28;20493;-78
2024/01/23 06:16:44;;;;;;;48.40;7.90;;;5.90;99.90;;;;;;5094041;28;20055;-78
2024/01/23 06:19:10;;;;;;;37.35;7.13;;;5.80;99.90;;;;;;5093566;28;20565;-77
2024/01/23 06:21:37;;;;;;;40.40;7.27;;;5.90;99.90;;;;;;5093932;28;20174;-78
2024/01/23 06:24:03;;;;;;;45.50;7.82;;;5.80;99.90;;;;;;5093807;28;20401;-77
2024/01/23 06:26:29;;;;;;;47.13;7.77;;;5.80;99.90;;;;;;5093819;28;20069;-78
2024/01/23 06:28:55;;;;;;;49.38;8.63;;;5.80;99.90;;;;;;5093754;28;20336;-78
2024/01/23 06:31:25;;;;;;;44.80;8.10;;;5.80;99.90;;;;;;5093330;28;20048;-78
2024/01/23 06:33:52;;;;;;;40.75;8.13;;;5.70;99.90;;;;;;5093849;28;20047;-78
2024/01/23 06:36:18;;;;;;;45.77;7.77;;;5.70;99.90;;;;;;5093204;28;20556;-78
2024/01/23 06:38:44;;;;;;;44.83;7.50;;;5.80;99.90;;;;;;5093707;28;20274;-78
2024/01/23 06:41:09;;;;;;;47.30;7.47;;;5.70;99.90;;;;;;5093566;28;20055;-78
2024/01/23 06:43:35;;;;;;;40.17;7.93;;;5.70;99.90;;;;;;5093596;28;20365;-78
2024/01/23 06:46:01;;;;;;;45.07;7.73;;;5.70;99.90;;;;;;5093272;28;20109;-78
2024/01/23 06:48:27;;;;;;;39.40;8.00;;;5.70;99.90;;;;;;5093582;28;20048;-78
2024/01/23 06:50:53;;;;;;;44.00;7.33;;;5.70;99.90;;;;;;5093220;28;20393;-78
2024/01/23 06:53:18;;;;;;;42.27;7.70;;;5.70;99.90;;;;;;5093339;28;20145;-78
2024/01/23 06:55:44;;;;;;;45.63;8.53;;;5.70;99.90;;;;;;5093134;28;20486;-78
2024/01/23 06:58:10;;;;;;;48.08;8.68;;;5.70;99.90;;;;;;5093299;28;20048;-78
2024/01/23 07:00:36;;;;;;;41.57;7.57;;;5.70;99.90;;;;;;5093384;28;20044;-78
2024/01/23 07:03:02;;;;;;;39.60;8.47;;;5.70;99.90;;;;;;5093175;28;20052;-77
2024/01/23 07:05:28;;;;;;;37.70;6.80;;;5.70;99.90;;;;;;5091995;28;20139;-78
2024/01/23 07:07:54;;;;;;;50.17;9.17;;;5.70;99.90;;;;;;5093244;28;20052;-78
2024/01/23 07:10:19;;;;;;;46.53;8.52;;;5.70;99.90;;;;;;5093381;28;20181;-78
2024/01/23 07:12:45;;;;;;;50.07;7.10;;;5.70;99.90;;;;;;5093496;28;20133;-78
2024/01/23 07:15:11;;;;;;;48.63;8.63;;;5.70;99.90;;;;;;5093054;28;20051;-78
2024/01/23 07:17:36;;;;;;;47.03;9.43;;;5.70;99.90;;;;;;5093374;28;20090;-78
2024/01/23 07:20:03;;;;;;;44.13;8.10;;;5.60;99.90;;;;;;5093101;28;20428;-74
2024/01/23 07:22:29;;;;;;;40.45;8.20;;;5.60;99.90;;;;;;5093186;28;20048;-77
2024/01/23 07:24:54;;;;;;;47.08;8.52;;;5.60;99.90;;;;;;5093164;28;20105;-77
2024/01/23 07:27:20;;;;;;;48.57;8.93;;;5.60;99.90;;;;;;5094575;28;20079;-77
2024/01/23 07:29:46;;;;;;;44.70;7.90;;;5.60;99.90;;;;;;5097235;28;20171;-77
2024/01/23 07:32:12;;;;;;;50.90;8.07;;;5.60;99.90;;;;;;5097061;28;20058;-77
2024/01/23 07:34:37;;;;;;;47.40;7.70;;;5.60;99.90;;;;;;5097369;28;20040;-77
2024/01/23 07:37:03;;;;;;;46.00;7.97;;;5.60;99.90;;;;;;5097183;28;20040;-78
2024/01/23 07:39:29;;;;;;;49.50;8.90;;;5.60;99.90;;;;;;5096970;28;20052;-77
2024/01/23 07:41:55;;;;;;;48.23;8.00;;;5.50;99.90;;;;;;5097080;28;20040;-77
2024/01/23 07:44:21;;;;;;;44.27;8.00;;;5.50;99.90;;;;;;5095335;28;20113;-78
2024/01/23 07:46:49;;;;;;;48.60;8.17;;;5.50;99.90;;;;;;5096876;28;20298;-78
2024/01/23 07:49:16;;;;;;;43.60;8.82;;;5.50;99.90;;;;;;5096702;28;20073;-78
2024/01/23 07:51:48;;;;;;;46.83;8.15;;;5.50;99.90;;;;;;5095778;28;20139;-77
2024/01/23 07:54:15;;;;;;;41.47;8.20;;;5.50;99.90;;;;;;5096606;28;20474;-77
2024/01/23 07:56:40;;;;;;;45.88;8.57;;;5.50;99.90;;;;;;5096744;28;20119;-78
2024/01/23 07:59:06;;;;;;;48.37;8.17;;;5.50;99.90;;;;;;5096756;28;20132;-74
2024/01/23 08:01:32;;;;;;;44.20;8.13;;;5.50;99.90;;;;;;5096699;28;20131;-77
2024/01/23 08:03:58;;;;;;;57.70;10.03;;;5.50;99.90;;;;;;5096749;28;20052;-77
2024/01/23 08:06:24;;;;;;;43.50;7.37;;;5.50;99.90;;;;;;5096055;28;20067;-77
2024/01/23 08:08:50;;;;;;;48.20;9.45;;;5.50;99.90;;;;;;5097047;28;20043;-77
2024/01/23 08:11:16;;;;;;;49.25;8.80;;;5.50;99.90;;;;;;5096285;28;20109;-77
2024/01/23 08:13:42;;;;;;;48.70;9.48;;;5.50;99.90;;;;;;5096414;28;20048;-77
2024/01/23 08:16:09;;;;;;;40.75;7.47;;;5.50;99.90;;;;;;5095836;28;20499;-75
2024/01/23 08:18:36;;;;;;;37.10;7.07;;;5.50;99.90;;;;;;5096347;28;20059;-77
2024/01/23 08:21:02;;;;;;;44.67;8.02;;;5.50;99.90;;;;;;5096343;28;20506;-77
2024/01/23 08:23:28;;;;;;;41.30;7.63;;;5.50;99.90;;;;;;5096087;28;20083;-76
2024/01/23 08:25:54;;;;;;;45.40;8.13;;;5.50;99.90;;;;;;5096243;28;20076;-77
2024/01/23 08:28:20;;;;;;;46.40;8.93;;;5.60;99.90;;;;;;5095927;28;20129;-77
2024/01/23 08:30:46;;;;;;;49.90;7.70;;;5.60;99.90;;;;;;5095164;28;20230;-77
2024/01/23 08:33:17;;;;;;;38.43;6.67;;;5.60;99.90;;;;;;5095833;28;20169;-77
2024/01/23 08:35:43;;;;;;;43.67;7.38;;;5.60;99.90;;;;;;5096281;28;20387;-78
2024/01/23 08:38:09;;;;;;;37.97;7.45;;;5.60;99.90;;;;;;5095788;28;20048;-77
2024/01/23 08:40:35;;;;;;;40.77;7.43;;;5.60;99.90;;;;;;5094840;28;20559;-77
2024/01/23 08:43:01;;;;;;;46.17;7.88;;;5.70;99.90;;;;;;5095924;28;20044;-77
2024/01/23 08:45:27;;;;;;;37.50;7.67;;;5.70;99.90;;;;;;5095637;28;20060;-77
2024/01/23 08:47:53;;;;;;;43.60;8.23;;;5.70;99.90;;;;;;5095732;28;20043;-77
2024/01/23 08:50:18;;;;;;;46.87;9.23;;;5.70;99.90;;;;;;5095494;28;20562;-77
2024/01/23 08:52:45;;;;;;;47.03;6.63;;;5.70;99.90;;;;;;5095653;28;20048;-77
2024/01/23 08:55:11;;;;;;;55.88;8.93;;;5.70;99.90;;;;;;5095326;28;20525;-77
2024/01/23 08:57:38;;;;;;;52.47;7.83;;;5.70;99.90;;;;;;5095379;28;20047;-77
2024/01/23 09:00:04;;;;;;;53.17;8.82;;;5.70;99.90;;;;;;5095569;28;20086;-77
2024/01/23 09:02:30;;;;;;;49.17;8.07;;;5.70;99.90;;;;;;5094425;28;20047;-77
2024/01/23 09:04:56;;;;;;;43.40;8.07;;;5.70;99.90;;;;;;5094575;28;20437;-77
2024/01/23 09:07:24;;;;;;;44.93;8.40;;;5.70;99.90;;;;;;5095102;28;20062;-77
2024/01/23 09:09:50;;;;;;;52.10;8.68;;;5.80;99.90;;;;;;5095318;28;20048;-77
2024/01/23 09:12:20;;;;;;;48.27;9.63;;;5.80;99.90;;;;;;5095160;28;20054;-77
2024/01/23 09:14:46;;;;;;;46.00;7.82;;;5.80;99.90;;;;;;5095644;28;20190;-77
2024/01/23 09:17:12;;;;;;;50.57;8.47;;;5.80;99.90;;;;;;5095189;28;20083;-77
2024/01/23 09:19:38;;;;;;;41.73;7.27;;;5.90;99.90;;;;;;5095325;28;20083;-77
2024/01/23 09:22:07;;;;;;;44.97;7.73;;;5.90;99.90;;;;;;5095148;28;20054;-78
2024/01/23 09:24:32;;;;;;;42.03;7.18;;;5.90;99.90;;;;;;5094684;28;20397;-77
2024/01/23 09:27:01;;;;;;;46.73;7.60;;;5.90;99.90;;;;;;5094575;28;20127;-77
2024/01/23 09:29:27;;;;;;;50.63;8.43;;;6.00;99.90;;;;;;5094745;28;20051;-77
2024/01/23 09:31:53;;;;;;;43.47;7.93;;;6.00;99.90;;;;;;5094922;28;20448;-77
2024/01/23 09:34:19;;;;;;;52.67;9.33;;;6.00;99.90;;;;;;5094628;28;20048;-77
2024/01/23 09:36:45;;;;;;;53.77;9.53;;;6.10;99.90;;;;;;5094820;28;20040;-77
2024/01/23 09:39:13;;;;;;;40.00;7.45;;;6.20;99.90;;;;;;5094646;28;20046;-78
2024/01/23 09:41:46;;;;;;;53.30;8.90;;;6.30;99.90;;;;;;5094444;28;20051;-77
2024/01/23 09:44:13;;;;;;;46.83;8.07;;;6.40;99.90;;;;;;5094691;28;20274;-77
2024/01/23 09:46:39;;;;;;;43.33;8.70;;;6.40;99.90;;;;;;5094338;28;20040;-77
2024/01/23 09:49:05;;;;;;;39.87;8.97;;;6.50;99.90;;;;;;5094130;28;20293;-77
2024/01/23 09:51:34;;;;;;;50.58;8.98;;;6.50;99.90;;;;;;5093928;28;20318;-77
2024/01/23 09:54:00;;;;;;;50.20;7.88;;;6.50;99.90;;;;;;5094645;28;20108;-77
2024/01/23 09:56:27;;;;;;;46.30;9.23;;;6.50;99.90;;;;;;5094119;28;20122;-77
2024/01/23 09:58:54;;;;;;;46.90;8.90;;;6.50;99.90;;;;;;5094387;28;20531;-77
2024/01/23 10:01:19;;;;;;;49.60;8.82;;;6.50;99.90;;;;;;5094291;28;20297;-76
2024/01/23 10:03:49;;;;;;;54.73;9.27;;;6.50;99.90;;;;;;5094385;28;20482;-77
2024/01/23 10:06:15;;;;;;;55.75;7.78;;;6.50;99.90;;;;;;5093848;28;20135;-76
2024/01/23 10:08:41;;;;;;;43.53;7.33;;;6.50;99.90;;;;;;5094091;28;20051;-77
2024/01/23 10:11:10;;;;;;;42.23;7.77;;;6.50;99.90;;;;;;5094148;28;20274;-77
2024/01/23 10:13:37;;;;;;;47.50;8.20;;;6.50;99.90;;;;;;5094001;28;20281;-77
2024/01/23 10:16:04;;;;;;;47.83;10.23;;;6.50;99.90;;;;;;5094117;28;20327;-77
2024/01/23 10:18:31;;;;;;;53.40;7.90;;;6.50;99.90;;;;;;5092908;28;20677;-77
2024/01/23 10:20:57;;;;;;;45.73;9.20;;;6.60;99.90;;;;;;5093987;28;20278;-77
2024/01/23 10:23:23;;;;;;;62.67;9.97;;;6.60;99.90;;;;;;5093799;28;20332;-77
2024/01/23 10:25:49;;;;;;;45.20;9.27;;;6.60;99.90;;;;;;5094152;28;20277;-77
2024/01/23 10:28:15;;;;;;;42.20;6.87;;;6.60;99.90;;;;;;5093925;28;20055;-77
2024/01/23 10:30:43;;;;;;;38.72;7.63;;;6.60;99.90;;;;;;5093752;28;20067;-77
2024/01/23 10:33:10;;;;;;;41.13;6.90;;;6.60;99.90;;;;;;5093834;28;20055;-77
2024/01/23 10:35:36;;;;;;;44.40;8.40;;;6.60;99.90;;;;;;5093603;28;20311;-77
2024/01/23 10:38:03;;;;;;;42.87;8.67;;;6.60;99.90;;;;;;5093425;28;20368;-77
2024/01/23 10:40:29;;;;;;;42.93;7.60;;;6.70;99.90;;;;;;5075839;28;20059;-77
2024/01/23 10:42:59;;;;;;;42.07;6.60;;;6.70;99.90;;;;;;5093652;28;20372;-77
2024/01/23 10:45:25;;;;;;;42.23;7.67;;;6.70;99.90;;;;;;5093543;28;20274;-76
2024/01/23 10:47:52;;;;;;;37.07;7.63;;;6.70;99.90;;;;;;5092314;28;20297;-78
2024/01/23 10:50:21;;;;;;;39.00;7.93;;;6.70;99.90;;;;;;5093591;28;20308;-77
2024/01/23 10:52:48;;;;;;;46.13;7.80;;;6.70;99.90;;;;;;5092396;28;20286;-77
2024/01/23 10:55:16;;;;;;;44.63;7.63;;;6.80;99.90;;;;;;5093659;28;20274;-78
2024/01/23 10:57:46;;;;;;;42.43;7.00;;;6.80;99.90;;;;;;5092947;28;20503;-77
2024/01/23 11:00:17;;;;;;;44.60;7.27;;;6.80;99.90;;;;;;5093704;28;20320;-78
2024/01/23 11:02:53;;;;;;;32.73;6.97;;;6.80;99.90;;;;;;5093226;28;20282;-77
2024/01/23 11:05:35;;;;;;;46.07;6.50;;;6.90;99.90;;;;;;5093524;28;20278;-78
2024/01/23 11:08:16;;;;;;;39.17;7.57;;;6.90;99.90;;;;;;5093508;28;20301;-78
2024/01/23 11:11:06;;;;;;;39.13;6.67;;;7.00;99.90;;;;;;5093259;28;20282;-77
2024/01/23 11:13:37;;;;;;;37.77;6.00;;;7.00;99.90;;;;;;5093163;28;20274;-78
2024/01/23 11:16:06;;;;;;;40.92;7.57;;;7.10;99.90;;;;;;5093336;28;20341;-78
2024/01/23 11:18:33;;;;;;;34.90;7.67;;;7.10;99.90;;;;;;5093058;28;20044;-77
2024/01/23 11:21:21;;;;;;;39.17;7.33;;;7.10;99.90;;;;;;5092045;28;20369;-78
2024/01/23 11:24:01;;;;;;;34.83;7.70;;;7.10;99.90;;;;;;5092021;28;20298;-78
2024/01/23 11:26:28;;;;;;;40.27;7.13;;;7.10;99.90;;;;;;5092735;28;20828;-74
2024/01/23 11:29:01;;;;;;;38.67;6.50;;;7.10;99.90;;;;;;5093148;28;20278;-77
2024/01/23 11:31:28;;;;;;;42.77;7.60;;;7.10;99.90;;;;;;5092005;28;20348;-77
2024/01/23 11:34:22;;;;;;;38.27;6.40;;;7.10;99.90;;;;;;5093123;28;20278;-77
2024/01/23 11:36:48;;;;;;;34.17;6.67;;;7.10;99.90;;;;;;5093013;28;20357;-77
2024/01/23 11:39:22;;;;;;;37.57;7.20;;;7.10;99.90;;;;;;5093114;28;20365;-77
2024/01/23 11:41:49;;;;;;;36.73;7.43;;;7.10;99.90;;;;;;5092922;28;20048;-77
2024/01/23 11:44:16;;;;;;;38.80;6.63;;;7.10;99.90;;;;;;5093088;28;20623;-78
2024/01/23 11:46:43;;;;;;;39.67;7.13;;;7.10;99.90;;;;;;5092796;28;20373;-77
2024/01/23 11:49:12;;;;;;;33.70;7.50;;;7.10;99.90;;;;;;5092976;28;20278;-78
2024/01/23 11:51:38;;;;;;;36.33;7.57;;;7.20;99.90;;;;;;5092732;28;20343;-77
2024/01/23 11:54:09;;;;;;;34.03;6.63;;;7.20;99.90;;;;;;5092940;28;20335;-78
2024/01/23 11:56:39;;;;;;;32.80;7.30;;;7.20;99.90;;;;;;5092690;28;20322;-77
2024/01/23 11:59:06;;;;;;;46.30;7.27;;;7.30;99.90;;;;;;5092915;28;20331;-78
2024/01/23 12:01:34;;;;;;;36.63;5.80;;;7.30;99.90;;;;;;5092619;28;20285;-76
2024/01/23 12:04:01;;;;;;;32.37;6.70;;;7.30;99.90;;;;;;5092838;28;20771;-78
2024/01/23 12:06:27;;;;;;;30.70;6.37;;;7.30;99.90;;;;;;5092514;28;20297;-78
2024/01/23 12:08:53;;;;;;;38.00;8.57;;;7.20;99.90;;;;;;5092643;28;20274;-78
2024/01/23 12:11:19;;;;;;;35.23;7.47;;;7.20;99.90;;;;;;5092531;28;20352;-78
2024/01/23 12:13:45;;;;;;;41.27;7.40;;;7.20;99.90;;;;;;5094660;28;20048;-78
2024/01/23 12:16:12;;;;;;;43.77;8.43;;;7.20;99.90;;;;;;5095401;28;20682;-78
2024/01/23 12:18:38;;;;;;;63.47;22.87;;;7.20;99.90;;;;;;5096061;28;20285;-77
2024/01/23 12:21:04;;;;;;;38.90;9.50;;;7.20;99.90;;;;;;5096269;28;20717;-78
2024/01/23 12:23:34;;;;;;;34.97;6.83;;;7.20;99.90;;;;;;5096270;28;20098;-78
2024/01/23 12:26:00;;;;;;;33.53;7.47;;;7.20;99.90;;;;;;5095497;28;20609;-78
2024/01/23 12:28:29;;;;;;;39.07;6.27;;;7.20;99.90;;;;;;5096151;28;20364;-77
2024/01/23 12:30:55;;;;;;;42.43;8.83;;;7.20;99.90;;;;;;5094817;28;20301;-77
2024/01/23 12:33:21;;;;;;;35.33;6.90;;;7.30;99.90;;;;;;5095760;28;20850;-77
2024/01/23 12:35:48;;;;;;;41.63;9.03;;;7.30;99.90;;;;;;5095848;28;20368;-77
2024/01/23 12:38:18;;;;;;;40.47;6.63;;;7.30;99.90;;;;;;5094813;28;20051;-78
2024/01/23 12:40:44;;;;;;;36.20;6.37;;;7.30;99.90;;;;;;5095785;28;20293;-78
2024/01/23 12:43:10;;;;;;;32.60;6.87;;;7.30;99.90;;;;;;5095862;28;20362;-78